Time;durP1;ratioP1;P1;durP2;ratioP2;P2;SDS_P1;SDS_P2;PMS_P1;PMS_P2;Temp;Humidity;BMP_temperature;BMP_pressure;BME280_temperature;BME280_humidity;BME280_pressure;Samples;Min_cycle;Max_cycle;Signal;HPM_P1;HPM_P2
2021/12/20 00:02:35;;;;;;;;;;;;;;;5.81;90.9541;103001.1;;;;-86
2021/12/20 00:07:31;;;;;;;;;;;;;;;5.79;90.98242;102995.9;;;;-86
2021/12/20 00:12:30;;;;;;;;;;;;;;;5.78;90.96777;103001.4;;;;-85
2021/12/20 00:17:34;;;;;;;;;;;;;;;5.76;90.99902;102995.5;;;;-86
2021/12/20 00:22:30;;;;;;;;;;;;;;;5.74;91.02734;102988;;;;-87
2021/12/20 00:27:31;;;;;;;;;;;;;;;5.73;91.0459;102993.3;;;;-87
2021/12/20 00:28:24;;;;;;;8.6;1.1;;;;;;;;;;;;;-84
2021/12/20 00:32:32;;;;;;;;;;;;;;;5.72;91.06543;102983;;;;-86
2021/12/20 00:42:31;;;;;;;;;;;;;;;5.7;91.05078;102988.7;;;;-84
2021/12/20 00:47:31;;;;;;;;;;;;;;;5.68;91.05762;102983.7;;;;-85
2021/12/20 00:52:33;;;;;;;;;;;;;;;5.67;91.07813;102983.2;;;;-85
2021/12/20 00:57:34;;;;;;;;;;;;;;;5.66;91.08691;102981.3;;;;-84
2021/12/20 00:58:34;;;;;;;7.9;1.1;;;;;;;;;;;;;-84
2021/12/20 01:02:32;;;;;;;;;;;;;;;5.65;91.12695;102982.6;;;;-85
2021/12/20 01:07:32;;;;;;;;;;;;;;;5.64;91.16992;102982.4;;;;-85
2021/12/20 01:12:41;;;;;;;;;;;;;;;5.62;91.15332;102984.2;;;;-86
2021/12/20 01:17:36;;;;;;;;;;;;;;;5.61;91.09668;102972.7;;;;-85
2021/12/20 01:22:34;;;;;;;;;;;;;;;5.6;91.07324;102977.2;;;;-86
2021/12/20 01:27:30;;;;;;;;;;;;;;;5.59;91.10449;102971.3;;;;-86
2021/12/20 01:28:23;;;;;;;5.9;1.2;;;;;;;;;;;;;-85
2021/12/20 01:32:32;;;;;;;;;;;;;;;5.57;91.13281;102965.7;;;;-86
2021/12/20 01:37:30;;;;;;;;;;;;;;;5.56;91.12012;102961.5;;;;-85
2021/12/20 01:42:33;;;;;;;;;;;;;;;5.55;91.12695;102966.5;;;;-86
2021/12/20 01:47:36;;;;;;;;;;;;;;;5.54;91.16895;102973.1;;;;-85
2021/12/20 01:52:40;;;;;;;;;;;;;;;5.52;91.18652;102966.3;;;;-85
2021/12/20 01:57:36;;;;;;;;;;;;;;;5.51;91.19629;102963.2;;;;-84
2021/12/20 01:58:24;;;;;;;5.8;1;;;;;;;;;;;;;-85
2021/12/20 02:02:32;;;;;;;;;;;;;;;5.5;91.20508;102965.1;;;;-86
2021/12/20 02:07:49;;;;;;;;;;;;;;;5.49;91.20313;102961.5;;;;-85
2021/12/20 02:12:30;;;;;;;;;;;;;;;5.47;91.20996;102960.6;;;;-85
2021/12/20 02:17:31;;;;;;;;;;;;;;;5.46;91.25195;102959.1;;;;-85
2021/12/20 02:22:31;;;;;;;;;;;;;;;5.46;91.2168;102960.3;;;;-85
2021/12/20 02:28:23;;;;;;;5.8;1.2;;;;;;;;;;;;;-84
2021/12/20 02:28:47;;;;;;;;;;;;;;;5.45;91.19336;102960.6;;;;-84
2021/12/20 02:38:56;;;;;;;;;;;;;;;5.43;91.22266;102958;;;;-85
2021/12/20 02:43:53;;;;;;;;;;;;;;;5.42;91.2207;102958.4;;;;-85
2021/12/20 02:48:45;;;;;;;;;;;;;;;5.41;91.23828;102954.9;;;;-86
2021/12/20 02:53:46;;;;;;;;;;;;;;;5.41;91.20605;102951.6;;;;-85
2021/12/20 02:58:20;;;;;;;4.5;0.8;;;;;;;;;;;;;-85
2021/12/20 02:58:44;;;;;;;;;;;;;;;5.38;91.20215;102948.1;;;;-84
2021/12/20 03:03:46;;;;;;;;;;;;;;;5.38;91.24316;102944;;;;-84
2021/12/20 03:08:52;;;;;;;;;;;;;;;5.37;91.25391;102939.3;;;;-86
2021/12/20 03:13:48;;;;;;;;;;;;;;;5.37;91.23242;102938.4;;;;-86
2021/12/20 03:18:45;;;;;;;;;;;;;;;5.35;91.20508;102942.3;;;;-85
2021/12/20 03:23:44;;;;;;;;;;;;;;;5.34;91.24902;102940.3;;;;-86
2021/12/20 03:28:20;;;;;;;7.3;1.1;;;;;;;;;;;;;-86
2021/12/20 03:28:44;;;;;;;;;;;;;;;5.34;91.25781;102945;;;;-86
2021/12/20 03:33:44;;;;;;;;;;;;;;;5.34;91.2793;102948.9;;;;-86
2021/12/20 03:38:44;;;;;;;;;;;;;;;5.33;91.2793;102947.4;;;;-86
2021/12/20 03:43:45;;;;;;;;;;;;;;;5.32;91.23438;102945.9;;;;-86
2021/12/20 03:48:44;;;;;;;;;;;;;;;5.31;91.23926;102942.1;;;;-87
2021/12/20 03:53:46;;;;;;;;;;;;;;;5.31;91.23047;102933.9;;;;-85
2021/12/20 03:58:19;;;;;;;5.3;1.1;;;;;;;;;;;;;-86
2021/12/20 03:58:45;;;;;;;;;;;;;;;5.29;91.18262;102944.4;;;;-86
2021/12/20 04:03:51;;;;;;;;;;;;;;;5.29;91.20215;102940.9;;;;-86
2021/12/20 04:08:48;;;;;;;;;;;;;;;5.28;91.20215;102940.4;;;;-86
2021/12/20 04:13:44;;;;;;;;;;;;;;;5.27;91.18945;102938.2;;;;-86
2021/12/20 04:18:45;;;;;;;;;;;;;;;5.25;91.18555;102932.6;;;;-87
2021/12/20 04:23:50;;;;;;;;;;;;;;;5.24;91.16016;102932.3;;;;-86
2021/12/20 04:28:18;;;;;;;4.5;0.9;;;;;;;;;;;;;-87
2021/12/20 04:28:45;;;;;;;;;;;;;;;5.23;91.12598;102934;;;;-84
2021/12/20 04:33:44;;;;;;;;;;;;;;;5.23;91.11523;102940.1;;;;-86
2021/12/20 04:38:46;;;;;;;;;;;;;;;5.22;91.12598;102937.4;;;;-87
2021/12/20 04:43:44;;;;;;;;;;;;;;;5.21;91.1416;102935.5;;;;-86
2021/12/20 04:48:45;;;;;;;;;;;;;;;5.2;91.07617;102936.3;;;;-86
2021/12/20 04:53:46;;;;;;;;;;;;;;;5.19;90.94336;102937.1;;;;-87
2021/12/20 04:58:18;;;;;;;6;1;;;;;;;;;;;;;-85
2021/12/20 04:58:53;;;;;;;;;;;;;;;5.19;90.96582;102930.5;;;;-85
2021/12/20 05:03:45;;;;;;;;;;;;;;;5.18;91.01758;102937.5;;;;-86
2021/12/20 05:08:52;;;;;;;;;;;;;;;5.18;90.94043;102945;;;;-85
2021/12/20 05:13:45;;;;;;;;;;;;;;;5.17;90.99414;102948.5;;;;-86
2021/12/20 05:18:53;;;;;;;;;;;;;;;5.17;91.02734;102947.1;;;;-87
2021/12/20 05:23:44;;;;;;;;;;;;;;;5.16;90.96875;102951;;;;-86
2021/12/20 05:28:33;;;;;;;4.7;0.8;;;;;;;;;;;;;-88
2021/12/20 05:28:49;;;;;;;;;;;;;;;5.13;90.86523;102946.9;;;;-87
2021/12/20 05:33:50;;;;;;;;;;;;;;;5.14;90.83594;102946.5;;;;-86
2021/12/20 05:38:45;;;;;;;;;;;;;;;5.13;90.7998;102953.5;;;;-86
2021/12/20 05:43:45;;;;;;;;;;;;;;;5.12;90.70215;102951.3;;;;-86
2021/12/20 05:48:44;;;;;;;;;;;;;;;5.11;90.62012;102952.4;;;;-85
2021/12/20 05:53:45;;;;;;;;;;;;;;;5.09;90.67188;102954.1;;;;-85
2021/12/20 05:58:18;;;;;;;6;1.1;;;;;;;;;;;;;-86
2021/12/20 05:58:46;;;;;;;;;;;;;;;5.09;90.70313;102951.7;;;;-85
2021/12/20 06:03:46;;;;;;;;;;;;;;;5.09;90.75977;102952;;;;-86
2021/12/20 06:08:46;;;;;;;;;;;;;;;5.07;90.74414;102962.1;;;;-86
2021/12/20 06:13:45;;;;;;;;;;;;;;;5.06;90.75195;102968.5;;;;-86
2021/12/20 06:18:47;;;;;;;;;;;;;;;5.05;90.78223;102967.2;;;;-86
2021/12/20 06:23:44;;;;;;;;;;;;;;;5.05;90.76074;102973.2;;;;-87
2021/12/20 06:28:16;;;;;;;4.4;0.9;;;;;;;;;;;;;-87
2021/12/20 06:28:45;;;;;;;;;;;;;;;5.03;90.72656;102974;;;;-86
2021/12/20 06:33:45;;;;;;;;;;;;;;;5.02;90.63574;102972.8;;;;-86
2021/12/20 06:38:47;;;;;;;;;;;;;;;5.01;90.50098;102982.3;;;;-85
2021/12/20 06:44:01;;;;;;;;;;;;;;;5;90.62109;102984.7;;;;-86
2021/12/20 06:48:44;;;;;;;;;;;;;;;4.99;90.62988;102973.9;;;;-87
2021/12/20 06:53:46;;;;;;;;;;;;;;;4.98;90.71289;102978.9;;;;-87
2021/12/20 06:58:14;;;;;;;4.7;0.7;;;;;;;;;;;;;-84
2021/12/20 06:58:46;;;;;;;;;;;;;;;4.96;90.77637;102976.3;;;;-84
2021/12/20 07:03:45;;;;;;;;;;;;;;;4.92;90.79004;102977.9;;;;-85
2021/12/20 07:08:46;;;;;;;;;;;;;;;4.86;90.66797;102977.1;;;;-85
2021/12/20 07:13:45;;;;;;;;;;;;;;;4.81;90.7002;102977.5;;;;-86
2021/12/20 07:19:01;;;;;;;;;;;;;;;4.75;90.59082;102982;;;;-86
2021/12/20 07:23:56;;;;;;;;;;;;;;;4.68;90.55176;102986.2;;;;-87
2021/12/20 07:28:17;;;;;;;2.6;0.7;;;;;;;;;;;;;-86
2021/12/20 07:28:45;;;;;;;;;;;;;;;4.64;90.58789;102990.1;;;;-86
2021/12/20 07:33:52;;;;;;;;;;;;;;;4.57;90.54199;102999.7;;;;-87
2021/12/20 07:38:47;;;;;;;;;;;;;;;4.51;90.57227;102999.6;;;;-86
2021/12/20 07:48:47;;;;;;;;;;;;;;;4.4;90.48438;103006;;;;-85
2021/12/20 07:53:54;;;;;;;;;;;;;;;4.32;90.39063;103009.6;;;;-86
2021/12/20 07:58:15;;;;;;;4.5;0.6;;;;;;;;;;;;;-87
2021/12/20 07:58:44;;;;;;;;;;;;;;;4.27;90.4248;103004.1;;;;-87
2021/12/20 08:03:46;;;;;;;;;;;;;;;4.22;90.45801;103007;;;;-87
2021/12/20 08:08:49;;;;;;;;;;;;;;;4.19;90.4834;103005;;;;-88
2021/12/20 08:13:56;;;;;;;;;;;;;;;4.17;90.6748;103006.9;;;;-86
2021/12/20 08:18:46;;;;;;;;;;;;;;;4.16;90.79297;103005.5;;;;-87
2021/12/20 08:23:45;;;;;;;;;;;;;;;4.18;90.89453;103011.7;;;;-77
2021/12/20 08:28:17;;;;;;;2.9;0.8;;;;;;;;;;;;;-87
2021/12/20 08:29:02;;;;;;;;;;;;;;;4.17;90.91406;103014.6;;;;-90
2021/12/20 08:39:03;;;;;;;;;;;;;;;4.17;90.91406;103025.7;;;;-88
2021/12/20 08:43:49;;;;;;;;;;;;;;;4.19;90.91797;103029.3;;;;-88
2021/12/20 08:48:48;;;;;;;;;;;;;;;4.2;90.91992;103027.4;;;;-89
2021/12/20 08:53:52;;;;;;;;;;;;;;;4.22;91.0127;103025;;;;-87
2021/12/20 08:58:21;;;;;;;2;0.6;;;;;;;;;;;;;-88
2021/12/20 08:58:44;;;;;;;;;;;;;;;4.26;91.08398;103032.3;;;;-86
2021/12/20 09:04:00;;;;;;;;;;;;;;;4.29;91.21289;103022.1;;;;-88
2021/12/20 09:12:09;;;;;;;;;;;;;;;4.38;91.2627;103030.6;;;;-88
2021/12/20 09:17:22;;;;;;;;;;;;;;;4.43;91.3291;103041.3;;;;-88
2021/12/20 09:22:11;;;;;;;;;;;;;;;4.5;91.375;103035.2;;;;-88
2021/12/20 09:27:03;;;;;;;;;;;;;;;4.56;91.375;103040;;;;-87
2021/12/20 09:28:21;;;;;;;2.5;0.7;;;;;;;;;;;;;-88
2021/12/20 09:32:04;;;;;;;;;;;;;;;4.62;91.39941;103040.3;;;;-87
2021/12/20 09:37:08;;;;;;;;;;;;;;;4.69;91.38281;103040.9;;;;-88
2021/12/20 09:42:17;;;;;;;;;;;;;;;4.76;91.33301;103045.5;;;;-88
2021/12/20 09:47:05;;;;;;;;;;;;;;;4.83;91.32422;103050.4;;;;-88
2021/12/20 09:52:07;;;;;;;;;;;;;;;4.87;91.3125;103051.9;;;;-88
2021/12/20 09:57:25;;;;;;;;;;;;;;;4.93;91.25879;103049.6;;;;-89
2021/12/20 09:58:19;;;;;;;2;0.7;;;;;;;;;;;;;-89
2021/12/20 10:05:30;;;;;;;;;;;;;;;5.04;91.16309;103053.6;;;;-89
2021/12/20 10:10:37;;;;;;;;;;;;;;;5.1;91.07715;103044.7;;;;-90
2021/12/20 10:25:33;;;;;;;;;;;;;;;5.27;90.80859;103065.8;;;;-89
2021/12/20 10:28:24;;;;;;;1.6;0.7;;;;;;;;;;;;;-89
2021/12/20 10:30:31;;;;;;;;;;;;;;;5.31;90.74023;103064.5;;;;-89
2021/12/20 10:35:28;;;;;;;;;;;;;;;5.36;90.72949;103063.7;;;;-88
2021/12/20 10:40:35;;;;;;;;;;;;;;;5.41;90.64258;103061.9;;;;-89
2021/12/20 10:50:52;;;;;;;;;;;;;;;5.52;90.70703;103055.4;;;;-88
2021/12/20 11:00:34;;;;;;;;;;;;;;;5.62;90.37891;103052.2;;;;-87
2021/12/20 11:05:43;;;;;;;;;;;;;;;5.68;90.34863;103050.1;;;;-88
2021/12/20 11:10:26;;;;;;;;;;;;;;;5.74;90.27539;103044.2;;;;-87
2021/12/20 11:15:18;;;;;;;;;;;;;;;5.79;90.20801;103056.7;;;;-86
2021/12/20 11:20:27;;;;;;;;;;;;;;;5.84;90.12109;103049.2;;;;-88
2021/12/20 11:25:20;;;;;;;;;;;;;;;5.89;90.03223;103047.5;;;;-88
2021/12/20 11:28:12;;;;;;;3.5;0.9;;;;;;;;;;;;;-87
2021/12/20 11:30:17;;;;;;;;;;;;;;;5.95;89.8252;103041.9;;;;-87
2021/12/20 11:35:33;;;;;;;;;;;;;;;5.99;89.74609;103037.9;;;;-86
2021/12/20 11:40:20;;;;;;;;;;;;;;;6.04;89.76855;103039.6;;;;-88
2021/12/20 11:45:19;;;;;;;;;;;;;;;6.09;89.58105;103041;;;;-90
2021/12/20 11:50:37;;;;;;;;;;;;;;;6.15;89.8584;103043;;;;-88
2021/12/20 11:54:45;;;;;;;;;;;;;;;6.22;90.06738;103041.1;;;;-86
2021/12/20 11:58:20;;;;;;;1.9;0.8;;;;;;;;;;;;;-87
2021/12/20 11:59:41;;;;;;;;;;;;;;;6.29;90.20117;103040.7;;;;-88
2021/12/20 12:04:44;;;;;;;;;;;;;;;6.35;90.23633;103038.6;;;;-88
2021/12/20 12:09:51;;;;;;;;;;;;;;;6.39;89.93945;103038;;;;-91
2021/12/20 12:14:44;;;;;;;;;;;;;;;6.42;89.74902;103039.9;;;;-88
2021/12/20 12:19:47;;;;;;;;;;;;;;;6.44;89.56641;103040;;;;-89
2021/12/20 12:24:44;;;;;;;;;;;;;;;6.42;89.48633;103037.7;;;;-89
2021/12/20 12:28:12;;;;;;;3.4;0.7;;;;;;;;;;;;;-88
2021/12/20 12:29:35;;;;;;;;;;;;;;;6.39;89.24023;103036;;;;-88
2021/12/20 12:34:41;;;;;;;;;;;;;;;6.37;89.19336;103038.5;;;;-89
2021/12/20 12:39:33;;;;;;;;;;;;;;;6.34;88.93652;103034.6;;;;-89
2021/12/20 12:44:34;;;;;;;;;;;;;;;6.33;88.70313;103044.5;;;;-90
2021/12/20 12:49:43;;;;;;;;;;;;;;;6.31;88.30566;103040.4;;;;-87
2021/12/20 12:54:49;;;;;;;;;;;;;;;6.31;88.22949;103036.5;;;;-88
2021/12/20 12:58:20;;;;;;;4.3;0.7;;;;;;;;;;;;;-88
2021/12/20 12:59:36;;;;;;;;;;;;;;;6.31;87.90332;103029.7;;;;-88
2021/12/20 13:04:42;;;;;;;;;;;;;;;6.32;87.99023;103027.5;;;;-87
2021/12/20 13:09:38;;;;;;;;;;;;;;;6.33;88.00391;103025.1;;;;-88
2021/12/20 13:14:35;;;;;;;;;;;;;;;6.34;88.0293;103015.3;;;;-86
2021/12/20 13:19:38;;;;;;;;;;;;;;;6.35;87.89746;103015.5;;;;-88
2021/12/20 13:24:35;;;;;;;;;;;;;;;6.35;87.87598;103011.4;;;;-88
2021/12/20 13:28:07;;;;;;;2.8;0.7;;;;;;;;;;;;;-87
2021/12/20 13:29:30;;;;;;;;;;;;;;;6.36;87.72461;103005.8;;;;-87
2021/12/20 13:34:32;;;;;;;;;;;;;;;6.36;87.77051;103015.6;;;;-87
2021/12/20 13:39:36;;;;;;;;;;;;;;;6.36;87.61523;103008.8;;;;-88
2021/12/20 13:44:37;;;;;;;;;;;;;;;6.35;87.56934;103012.3;;;;-88
2021/12/20 13:49:34;;;;;;;;;;;;;;;6.34;87.5791;103017.8;;;;-86
2021/12/20 13:54:37;;;;;;;;;;;;;;;6.33;87.65332;103019;;;;-86
2021/12/20 13:58:10;;;;;;;3.3;0.8;;;;;;;;;;;;;-89
2021/12/20 13:59:34;;;;;;;;;;;;;;;6.31;87.68457;103020.8;;;;-87
2021/12/20 14:04:37;;;;;;;;;;;;;;;6.3;87.7793;103021;;;;-87
2021/12/20 14:09:49;;;;;;;;;;;;;;;6.29;87.83203;103020.3;;;;-88
2021/12/20 14:14:31;;;;;;;;;;;;;;;6.28;87.81738;103020.2;;;;-87
2021/12/20 14:19:43;;;;;;;;;;;;;;;6.26;87.75;103022.1;;;;-87
2021/12/20 14:24:45;;;;;;;;;;;;;;;6.23;87.90625;103023;;;;-88
2021/12/20 14:28:10;;;;;;;5.7;0.8;;;;;;;;;;;;;-86
2021/12/20 14:29:44;;;;;;;;;;;;;;;6.19;87.89746;103019.7;;;;-87
2021/12/20 14:34:42;;;;;;;;;;;;;;;6.14;87.95605;103016.3;;;;-88
2021/12/20 14:39:31;;;;;;;;;;;;;;;6.09;88.14063;103012.3;;;;-88
2021/12/20 14:44:42;;;;;;;;;;;;;;;6.03;88.17188;103009.6;;;;-86
2021/12/20 14:49:47;;;;;;;;;;;;;;;5.95;88.27539;103006;;;;-87
2021/12/20 14:54:43;;;;;;;;;;;;;;;5.85;88.375;102995.6;;;;-87
2021/12/20 14:58:09;;;;;;;5.3;0.8;;;;;;;;;;;;;-88
2021/12/20 14:59:47;;;;;;;;;;;;;;;5.76;88.53125;102997.1;;;;-87
2021/12/20 15:04:41;;;;;;;;;;;;;;;5.67;88.56934;103000.4;;;;-85
2021/12/20 15:09:36;;;;;;;;;;;;;;;5.58;88.65723;103001.9;;;;-87
2021/12/20 15:14:38;;;;;;;;;;;;;;;5.46;88.5459;103001.5;;;;-87
2021/12/20 15:19:34;;;;;;;;;;;;;;;5.35;88.44727;103007.4;;;;-85
2021/12/20 15:24:30;;;;;;;;;;;;;;;5.24;88.52344;102999.8;;;;-87
2021/12/20 15:28:09;;;;;;;1.4;0.6;;;;;;;;;;;;;-86
2021/12/20 15:29:30;;;;;;;;;;;;;;;5.15;88.60254;102998.2;;;;-86
2021/12/20 15:34:36;;;;;;;;;;;;;;;5.06;88.62988;102999.3;;;;-86
2021/12/20 15:39:41;;;;;;;;;;;;;;;4.98;88.76563;102992.2;;;;-86
2021/12/20 15:44:39;;;;;;;;;;;;;;;4.89;88.63965;102986.9;;;;-86
2021/12/20 15:49:40;;;;;;;;;;;;;;;4.81;88.71875;102993.9;;;;-86
2021/12/20 15:54:32;;;;;;;;;;;;;;;4.73;88.71289;102992;;;;-87
2021/12/20 15:58:09;;;;;;;3.6;0.8;;;;;;;;;;;;;-86
2021/12/20 15:59:36;;;;;;;;;;;;;;;4.65;88.73047;102989.3;;;;-86
2021/12/20 16:04:36;;;;;;;;;;;;;;;4.57;88.82227;102983.2;;;;-86
2021/12/20 16:09:30;;;;;;;;;;;;;;;4.5;88.79688;102982.9;;;;-85
2021/12/20 16:14:35;;;;;;;;;;;;;;;4.44;88.83789;102984.1;;;;-86
2021/12/20 16:19:31;;;;;;;;;;;;;;;4.37;88.95508;102982.5;;;;-85
2021/12/20 16:24:30;;;;;;;;;;;;;;;4.3;88.92969;102982.9;;;;-83
2021/12/20 16:28:01;;;;;;;3.3;0.9;;;;;;;;;;;;;-84
2021/12/20 16:34:33;;;;;;;;;;;;;;;4.22;89.06738;102986.9;;;;-86
2021/12/20 16:39:34;;;;;;;;;;;;;;;4.17;89.25098;102996.6;;;;-86
2021/12/20 16:44:37;;;;;;;;;;;;;;;4.15;89.3125;102993.6;;;;-87
2021/12/20 16:49:35;;;;;;;;;;;;;;;4.12;89.35938;102990.2;;;;-86
2021/12/20 16:54:46;;;;;;;;;;;;;;;4.1;89.4209;102986.1;;;;-87
2021/12/20 17:04:43;;;;;;;;;;;;;;;4.03;89.53809;102987;;;;-86
2021/12/20 17:19:38;;;;;;;;;;;;;;;3.88;89.57129;102988.1;;;;-85
2021/12/20 17:24:30;;;;;;;;;;;;;;;3.85;89.50098;102985.1;;;;-85
2021/12/20 17:28:00;;;;;;;4.1;0.8;;;;;;;;;;;;;-86
2021/12/20 17:29:34;;;;;;;;;;;;;;;3.8;89.56738;102987.5;;;;-85
2021/12/20 17:34:32;;;;;;;;;;;;;;;3.76;89.64453;102985.2;;;;-85
2021/12/20 17:39:35;;;;;;;;;;;;;;;3.71;89.64453;102993;;;;-84
2021/12/20 17:44:37;;;;;;;;;;;;;;;3.66;89.66504;102998.8;;;;-88
2021/12/20 17:49:45;;;;;;;;;;;;;;;3.61;89.64648;102997.6;;;;-83
2021/12/20 17:57:15;;;;;;;;;;;;;;;3.55;89.63379;103005.6;;;;-87
2021/12/20 17:58:00;;;;;;;3.4;1;;;;;;;;;;;;;-87
2021/12/20 18:02:23;;;;;;;;;;;;;;;3.52;89.66016;103003.6;;;;-86
2021/12/20 18:07:23;;;;;;;;;;;;;;;3.49;89.6748;103009.8;;;;-86
2021/12/20 18:12:19;;;;;;;;;;;;;;;3.47;89.72363;103002.7;;;;-87
2021/12/20 18:17:17;;;;;;;;;;;;;;;3.45;89.78613;103009.4;;;;-87
2021/12/20 18:22:15;;;;;;;;;;;;;;;3.42;89.79004;103007.3;;;;-87
2021/12/20 18:27:34;;;;;;;;;;;;;;;3.4;89.82031;103005.4;;;;-87
2021/12/20 18:28:03;;;;;;;4.3;1.1;;;;;;;;;;;;;-87
2021/12/20 18:32:36;;;;;;;;;;;;;;;3.37;89.83496;103005.5;;;;-88
2021/12/20 18:37:24;;;;;;;;;;;;;;;3.34;89.90234;103004.1;;;;-88
2021/12/20 18:42:22;;;;;;;;;;;;;;;3.32;89.87695;103007.9;;;;-86
2021/12/20 18:52:13;;;;;;;;;;;;;;;3.27;89.91992;103013.9;;;;-87
2021/12/20 18:57:19;;;;;;;;;;;;;;;3.23;89.93652;103018;;;;-88
2021/12/20 19:02:21;;;;;;;;;;;;;;;3.2;89.91992;103018.7;;;;-88
2021/12/20 19:07:16;;;;;;;;;;;;;;;3.17;89.93359;103020.9;;;;-88
2021/12/20 19:12:28;;;;;;;;;;;;;;;3.13;89.86133;103021.2;;;;-87
2021/12/20 19:17:39;;;;;;;;;;;;;;;3.09;89.88379;103023.9;;;;-88
2021/12/20 19:22:22;;;;;;;;;;;;;;;3.07;89.90234;103021.7;;;;-86
2021/12/20 19:27:28;;;;;;;;;;;;;;;3.01;89.75879;103018.7;;;;-87
2021/12/20 19:28:06;;;;;;;3.8;1.4;;;;;;;;;;;;;-87
2021/12/20 19:34:46;;;;;;;;;;;;;;;2.94;89.7666;103012.3;;;;-87
2021/12/20 19:39:52;;;;;;;;;;;;;;;2.88;89.70996;103009.2;;;;-87
2021/12/20 19:52:31;;;;;;;;;;;;;;;2.71;89.51367;103000.4;;;;-85
2021/12/20 19:57:34;;;;;;;;;;;;;;;2.64;89.42285;103006.8;;;;-85
2021/12/20 19:57:56;;;;;;;3.8;1.6;;;;;;;;;;;;;-86
2021/12/20 20:02:31;;;;;;;;;;;;;;;2.56;89.40527;102996.6;;;;-85
2021/12/20 20:07:29;;;;;;;;;;;;;;;2.5;89.44824;102999.5;;;;-85
2021/12/20 20:12:25;;;;;;;;;;;;;;;2.45;89.44824;102996.2;;;;-85
2021/12/20 20:17:42;;;;;;;;;;;;;;;2.39;89.40234;103006.2;;;;-86
2021/12/20 20:23:10;;;;;;;;;;;;;;;2.32;89.29004;103004;;;;-88
2021/12/20 20:28:02;;;;;;;7.4;1.9;;;;;;;;;;;;;-87
2021/12/20 20:28:25;;;;;;;;;;;;;;;2.23;89.29199;103001.5;;;;-86
2021/12/20 20:33:13;;;;;;;;;;;;;;;2.19;89.4043;103000.4;;;;-88
2021/12/20 20:38:14;;;;;;;;;;;;;;;2.13;89.32813;102997.9;;;;-85
2021/12/20 20:43:11;;;;;;;;;;;;;;;2.08;89.38086;103005.7;;;;-85
2021/12/20 20:48:19;;;;;;;;;;;;;;;2.04;89.33008;103002.7;;;;-85
2021/12/20 20:58:04;;;;;;;6.1;1.9;;;;;;;;;;;;;-86
2021/12/20 20:58:23;;;;;;;;;;;;;;;1.94;89.28613;103008.8;;;;-87
2021/12/20 21:03:24;;;;;;;;;;;;;;;;;;;;;
2021/12/20 21:11:06;;;;;;;;;;;;;;;1.82;89.19824;103007.1;;;;-87
2021/12/20 21:16:31;;;;;;;;;;;;;;;1.79;89.2666;103012.7;;;;-87
2021/12/20 21:21:39;;;;;;;;;;;;;;;;;;;;;
2021/12/20 21:26:07;;;;;;;;;;;;;;;1.67;89.31738;102997.5;;;;-86
2021/12/20 21:28:04;;;;;;;6.9;2;;;;;;;;;;;;;-86
2021/12/20 21:35:34;;;;;;;;;;;;;;;1.59;89.21387;103006.7;;;;-85
2021/12/20 21:40:30;;;;;;;;;;;;;;;1.55;89.15234;103005.4;;;;-86
2021/12/20 21:45:35;;;;;;;;;;;;;;;1.51;89.08008;102999.7;;;;-86
2021/12/20 21:50:24;;;;;;;;;;;;;;;1.47;89.11426;103000.7;;;;-84
2021/12/20 21:55:26;;;;;;;;;;;;;;;1.42;89.02637;103001.3;;;;-84
2021/12/20 21:58:06;;;;;;;6.4;2.2;;;;;;;;;;;;;-85
2021/12/20 22:00:27;;;;;;;;;;;;;;;1.36;89.09082;102992.3;;;;-86
2021/12/20 22:05:21;;;;;;;;;;;;;;;1.32;89.10547;102993.7;;;;-86
2021/12/20 22:10:36;;;;;;;;;;;;;;;1.28;89.02051;102989.3;;;;-86
2021/12/20 22:15:30;;;;;;;;;;;;;;;1.25;88.92773;102991.8;;;;-87
2021/12/20 22:20:29;;;;;;;;;;;;;;;1.2;88.84082;102981.7;;;;-86
2021/12/20 22:25:27;;;;;;;;;;;;;;;1.13;88.84961;102983.8;;;;-86
2021/12/20 22:27:55;;;;;;;5.5;2.2;;;;;;;;;;;;;-87
2021/12/20 22:30:40;;;;;;;;;;;;;;;1.09;88.90527;102980.5;;;;-86
2021/12/20 22:35:22;;;;;;;;;;;;;;;1.03;88.81836;102985.8;;;;-87
2021/12/20 22:40:21;;;;;;;;;;;;;;;0.96;88.77246;102985.1;;;;-86
2021/12/20 22:45:21;;;;;;;;;;;;;;;0.94;88.78809;102993.3;;;;-87
2021/12/20 22:50:21;;;;;;;;;;;;;;;0.86;88.59863;102987.8;;;;-88
2021/12/20 22:55:21;;;;;;;;;;;;;;;0.8;88.60938;102980.8;;;;-86
2021/12/20 22:57:50;;;;;;;4.6;2.2;;;;;;;;;;;;;-86
2021/12/20 23:00:34;;;;;;;;;;;;;;;0.74;88.62793;102978.2;;;;-87
2021/12/20 23:05:26;;;;;;;;;;;;;;;0.69;88.62988;102979.9;;;;-86
2021/12/20 23:10:48;;;;;;;;;;;;;;;0.68;88.61523;102971.9;;;;-87
2021/12/20 23:15:21;;;;;;;;;;;;;;;0.61;88.62305;102979;;;;-87
2021/12/20 23:20:29;;;;;;;;;;;;;;;0.6;88.6543;102973.6;;;;-85
2021/12/20 23:25:32;;;;;;;;;;;;;;;0.54;88.64063;102978.8;;;;-87
2021/12/20 23:27:50;;;;;;;5.3;2.1;;;;;;;;;;;;;-86
2021/12/20 23:30:23;;;;;;;;;;;;;;;0.52;88.63477;102971.4;;;;-85
2021/12/20 23:35:20;;;;;;;;;;;;;;;0.47;88.6582;102975.7;;;;-84
2021/12/20 23:40:28;;;;;;;;;;;;;;;0.44;88.54395;102973.7;;;;-85
2021/12/20 23:45:23;;;;;;;;;;;;;;;0.4;88.60156;102977.5;;;;-87
2021/12/20 23:50:20;;;;;;;;;;;;;;;0.37;88.56152;102972.9;;;;-77
2021/12/20 23:55:26;;;;;;;;;;;;;;;0.32;88.57422;102974.5;;;;-86
2021/12/20 23:57:53;;;;;;;5.1;2;;;;;;;;;;;;;-88
